createdAt,value
2019-04-01T00:00:48.224Z,12.80
2019-04-01T00:03:16.719Z,6.00
2019-04-01T00:05:45.435Z,4.17
2019-04-01T00:08:13.859Z,7.67
2019-04-01T00:10:42.542Z,6.50
2019-04-01T00:13:11.243Z,4.60
2019-04-01T00:15:39.683Z,10.10
2019-04-01T00:18:08.390Z,4.57
2019-04-01T00:20:37.060Z,10.10
2019-04-01T00:23:05.963Z,8.10
2019-04-01T00:25:34.927Z,5.50
2019-04-01T00:28:03.371Z,4.43
2019-04-01T00:30:32.071Z,5.30
2019-04-01T00:33:00.791Z,5.90
2019-04-01T00:35:29.499Z,9.30
2019-04-01T00:37:57.947Z,8.77
2019-04-01T00:40:26.377Z,6.97
2019-04-01T00:43:02.567Z,6.00
2019-04-01T00:45:32.884Z,10.90
2019-04-01T00:48:01.956Z,5.03
2019-04-01T00:50:30.627Z,7.40
2019-04-01T00:52:59.340Z,5.73
2019-04-01T00:55:27.784Z,5.63
2019-04-01T00:57:56.579Z,8.17
2019-04-01T01:00:25.007Z,7.83
2019-04-01T01:02:53.728Z,4.40
2019-04-01T01:05:22.212Z,9.73
2019-04-01T01:07:50.931Z,4.93
2019-04-01T01:10:19.362Z,5.93
2019-04-01T01:12:47.816Z,8.30
2019-04-01T01:15:16.648Z,6.10
2019-04-01T01:17:45.411Z,4.93
2019-04-01T01:20:13.910Z,6.20
2019-04-01T01:22:42.612Z,7.80
2019-04-01T01:25:11.484Z,5.40
2019-04-01T01:27:39.979Z,7.17
2019-04-01T01:30:09.031Z,7.30
2019-04-01T01:32:37.725Z,5.00
2019-04-01T01:35:06.657Z,7.63
2019-04-01T01:37:35.099Z,9.30
2019-04-01T01:40:04.233Z,10.53
2019-04-01T01:42:32.927Z,6.23
2019-04-01T01:45:01.351Z,12.00
2019-04-01T01:47:30.091Z,5.50
2019-04-01T01:49:58.539Z,8.50
2019-04-01T01:52:27.328Z,10.50
2019-04-01T01:54:55.758Z,3.57
2019-04-01T01:57:24.199Z,6.23
2019-04-01T01:59:52.628Z,5.03
2019-04-01T02:02:21.099Z,6.67
2019-04-01T02:04:49.523Z,8.73
2019-04-01T02:07:17.968Z,6.80
2019-04-01T02:09:46.474Z,9.77
2019-04-01T02:12:15.164Z,3.70
2019-04-01T02:14:43.600Z,4.83
2019-04-01T02:17:12.054Z,9.67
2019-04-01T02:19:40.475Z,8.57
2019-04-01T02:22:08.930Z,6.00
2019-04-01T02:24:37.354Z,12.80
2019-04-01T02:27:05.807Z,6.00
2019-04-01T02:29:34.237Z,7.17
2019-04-01T02:32:02.932Z,7.23
2019-04-01T02:34:31.364Z,9.73
2019-04-01T02:37:00.078Z,4.03
2019-04-01T02:39:28.515Z,7.40
2019-04-01T02:41:57.022Z,2.87
2019-04-01T02:44:26.986Z,4.87
2019-04-01T02:46:55.466Z,6.00
2019-04-01T02:49:23.935Z,7.17
2019-04-01T02:51:52.405Z,7.27
2019-04-01T02:54:21.100Z,4.60
2019-04-01T02:56:49.555Z,3.73
2019-04-01T02:59:18.057Z,3.30
2019-04-01T03:01:46.749Z,7.93
2019-04-01T03:04:15.425Z,4.50
2019-04-01T03:06:44.123Z,6.37
2019-04-01T03:09:12.547Z,5.67
2019-04-01T03:11:40.991Z,4.20
2019-04-01T03:14:09.436Z,3.27
2019-04-01T03:16:37.885Z,3.23
2019-04-01T03:19:06.383Z,12.60
2019-04-01T03:21:34.839Z,14.23
2019-04-01T03:24:03.530Z,5.60
2019-04-01T03:26:32.045Z,6.20
2019-04-01T03:29:00.735Z,7.00
2019-04-01T03:31:29.264Z,9.70
2019-04-01T03:33:57.834Z,9.03
2019-04-01T03:36:26.340Z,5.90
2019-04-01T03:38:54.767Z,6.57
2019-04-01T03:41:23.228Z,2.77
2019-04-01T03:43:51.933Z,6.73
2019-04-01T03:46:20.705Z,7.53
2019-04-01T03:48:49.207Z,5.47
2019-04-01T03:51:17.647Z,7.47
2019-04-01T03:53:46.101Z,6.07
2019-04-01T03:56:14.591Z,9.37
2019-04-01T03:58:43.051Z,15.87
2019-04-01T04:01:11.872Z,6.83
2019-04-01T04:03:40.342Z,6.57
2019-04-01T04:06:08.772Z,8.07
2019-04-01T04:08:37.302Z,6.90
2019-04-01T04:11:05.734Z,4.30
2019-04-01T04:13:34.160Z,6.37
2019-04-01T04:16:02.584Z,6.90
2019-04-01T04:18:31.024Z,8.20
2019-04-01T04:20:59.727Z,4.23
2019-04-01T04:23:28.172Z,10.30
2019-04-01T04:25:56.608Z,6.83
2019-04-01T04:28:25.045Z,7.47
2019-04-01T04:30:53.465Z,15.80
2019-04-01T04:33:22.304Z,11.33
2019-04-01T04:35:51.037Z,7.63
2019-04-01T04:38:19.487Z,7.43
2019-04-01T04:40:47.912Z,9.40
2019-04-01T04:43:16.367Z,12.37
2019-04-01T04:45:45.195Z,10.97
2019-04-01T04:48:13.699Z,5.83
2019-04-01T04:50:42.135Z,3.90
2019-04-01T04:53:10.647Z,5.17
2019-04-01T04:55:39.073Z,7.40
2019-04-01T04:58:07.788Z,11.00
2019-04-01T05:00:36.218Z,8.63
2019-04-01T05:03:04.988Z,9.33
2019-04-01T05:05:33.415Z,7.13
2019-04-01T05:08:01.935Z,11.30
2019-04-01T05:10:30.362Z,7.00
2019-04-01T05:12:58.806Z,11.43
2019-04-01T05:15:27.235Z,12.00
2019-04-01T05:17:55.667Z,9.50
2019-04-01T05:20:24.099Z,6.20
2019-04-01T05:22:52.987Z,11.83
2019-04-01T05:25:21.471Z,8.27
2019-04-01T05:27:51.204Z,8.40
2019-04-01T05:30:19.639Z,20.27
2019-04-01T05:32:49.951Z,9.40
2019-04-01T05:35:18.658Z,8.60
2019-04-01T05:37:47.164Z,5.43
2019-04-01T05:40:15.734Z,6.20
2019-04-01T05:42:44.255Z,5.03
2019-04-01T05:45:12.754Z,8.90
2019-04-01T05:47:42.834Z,9.00
2019-04-01T05:50:11.531Z,6.30
2019-04-01T05:52:40.063Z,8.03
2019-04-01T05:55:09.034Z,6.37
2019-04-01T05:57:37.776Z,5.67
2019-04-01T06:00:07.215Z,6.10
2019-04-01T06:02:35.931Z,7.40
2019-04-01T06:05:06.511Z,8.00
2019-04-01T06:07:35.787Z,6.23
2019-04-01T06:10:06.947Z,6.73
2019-04-01T06:12:36.027Z,7.47
2019-04-01T06:15:06.209Z,6.43
2019-04-01T06:17:34.651Z,9.00
2019-04-01T06:20:04.182Z,9.97
2019-04-01T06:22:32.772Z,6.63
2019-04-01T06:25:01.199Z,5.10
2019-04-01T06:27:30.192Z,9.50
2019-04-01T06:29:59.506Z,9.87
2019-04-01T06:32:28.299Z,5.40
2019-04-01T06:34:56.898Z,8.23
2019-04-01T06:37:25.602Z,10.40
2019-04-01T06:39:54.303Z,6.83
2019-04-01T06:42:23.010Z,5.10
2019-04-01T06:44:51.455Z,6.30
2019-04-01T06:47:20.074Z,5.33
2019-04-01T06:49:48.768Z,5.30
2019-04-01T06:52:17.200Z,6.33
2019-04-01T06:54:45.816Z,4.60
2019-04-01T06:57:14.525Z,5.20
2019-04-01T06:59:42.966Z,5.63
2019-04-01T07:02:11.760Z,6.20
2019-04-01T07:04:40.408Z,7.20
2019-04-01T07:07:18.978Z,5.37
2019-04-01T07:09:38.977Z,10.40
2019-04-01T07:12:07.497Z,7.13
2019-04-01T07:14:36.647Z,4.73
2019-04-01T07:17:05.275Z,8.60
2019-04-01T07:19:34.147Z,8.63
2019-04-01T07:22:02.770Z,7.60
2019-04-01T07:24:31.511Z,5.53
2019-04-01T07:27:00.217Z,4.43
2019-04-01T07:29:29.120Z,6.90
2019-04-01T07:31:57.739Z,6.93
2019-04-01T07:34:26.195Z,6.13
2019-04-01T07:36:54.629Z,4.57
2019-04-01T07:39:23.331Z,4.63
2019-04-01T07:41:52.067Z,5.60
2019-04-01T07:44:20.996Z,7.80
2019-04-01T07:46:49.669Z,5.53
2019-04-01T07:49:18.100Z,4.40
2019-04-01T07:51:46.795Z,7.87
2019-04-01T07:54:18.394Z,8.80
2019-04-01T07:56:46.304Z,6.20
2019-04-01T07:59:15.095Z,5.20
2019-04-01T08:01:43.697Z,4.93
2019-04-01T08:04:12.394Z,3.03
2019-04-01T08:06:41.151Z,6.53
2019-04-01T08:09:09.675Z,4.87
2019-04-01T08:11:38.202Z,7.90
2019-04-01T08:14:06.707Z,4.47
2019-04-01T08:16:35.129Z,7.33
2019-04-01T08:19:03.740Z,10.23
2019-04-01T08:21:32.800Z,4.00
2019-04-01T08:24:01.374Z,6.07
2019-04-01T08:26:30.180Z,5.07
2019-04-01T08:28:58.952Z,3.27
2019-04-01T08:31:27.375Z,6.10
2019-04-01T08:33:55.884Z,6.80
2019-04-01T08:36:24.657Z,4.40
2019-04-01T08:38:55.412Z,4.90
2019-04-01T08:41:23.398Z,7.87
2019-04-01T08:43:51.852Z,5.67
2019-04-01T08:46:20.920Z,6.60
2019-04-01T08:48:50.095Z,8.13
2019-04-01T08:51:18.797Z,5.40
2019-04-01T08:53:47.376Z,5.00
2019-04-01T08:56:16.158Z,8.87
2019-04-01T08:58:44.754Z,11.10
2019-04-01T09:01:34.179Z,7.37
2019-04-01T09:03:46.476Z,5.03
2019-04-01T09:06:17.347Z,5.23
2019-04-01T09:08:47.734Z,5.67
2019-04-01T09:11:16.481Z,6.57
2019-04-01T09:13:45.523Z,5.13
2019-04-01T09:16:16.529Z,6.80
2019-04-01T09:18:45.171Z,7.10
2019-04-01T09:21:14.122Z,9.07
2019-04-01T09:23:42.934Z,8.43
2019-04-01T09:26:11.674Z,6.90
2019-04-01T09:28:40.488Z,7.00
2019-04-01T09:31:09.239Z,7.90
2019-04-01T09:33:37.758Z,10.83
2019-04-01T09:36:06.520Z,7.43
2019-04-01T09:38:34.979Z,5.17
2019-04-01T09:41:03.588Z,6.17
2019-04-01T09:43:32.031Z,5.83
2019-04-01T09:46:00.570Z,5.33
2019-04-01T09:48:29.345Z,7.10
2019-04-01T09:50:58.046Z,7.63
2019-04-01T09:53:26.481Z,5.70
2019-04-01T09:55:54.928Z,10.70
2019-04-01T09:58:23.699Z,9.57
2019-04-01T10:00:53.329Z,8.47
2019-04-01T10:03:22.412Z,8.03
2019-04-01T10:05:50.849Z,10.23
2019-04-01T10:08:19.599Z,9.30
2019-04-01T10:10:48.031Z,7.93
2019-04-01T10:13:16.759Z,7.13
2019-04-01T10:15:45.265Z,11.00
2019-04-01T10:18:13.731Z,10.13
2019-04-01T10:20:42.231Z,7.10
2019-04-01T10:23:10.684Z,11.00
2019-04-01T10:25:39.491Z,13.10
2019-04-01T10:28:07.943Z,8.77
2019-04-01T10:30:36.460Z,6.67
2019-04-01T10:33:06.165Z,8.00
2019-04-01T10:35:35.075Z,8.50
2019-04-01T10:38:03.596Z,7.00
2019-04-01T10:40:32.670Z,8.67
2019-04-01T10:43:01.148Z,10.23
2019-04-01T10:45:29.594Z,6.77
2019-04-01T10:47:58.175Z,7.30
2019-04-01T10:50:26.719Z,11.53
2019-04-01T10:52:55.465Z,5.07
2019-04-01T10:55:24.284Z,11.43
2019-04-01T10:57:54.101Z,8.40
2019-04-01T11:00:23.148Z,9.50
2019-04-01T11:02:51.636Z,7.87
2019-04-01T11:05:20.202Z,6.00
2019-04-01T11:07:48.841Z,6.37
2019-04-01T11:10:17.806Z,7.17
2019-04-01T11:12:46.251Z,6.47
2019-04-01T11:15:15.941Z,10.73
2019-04-01T11:17:44.542Z,9.20
2019-04-01T11:20:13.131Z,8.33
2019-04-01T11:22:41.586Z,11.30
2019-04-01T11:25:10.263Z,7.10
2019-04-01T11:27:39.036Z,10.13
2019-04-01T11:30:09.319Z,8.63
2019-04-01T11:32:38.319Z,9.20
2019-04-01T11:35:07.493Z,9.93
2019-04-01T11:37:36.305Z,7.17
2019-04-01T11:40:11.075Z,13.00
2019-04-01T11:42:40.446Z,9.83
2019-04-01T11:45:08.167Z,12.23
2019-04-01T11:47:37.615Z,11.37
2019-04-01T11:50:07.101Z,11.10
2019-04-01T11:52:35.844Z,9.13
2019-04-01T11:55:06.542Z,12.00
2019-04-01T11:57:35.638Z,8.80
2019-04-01T12:00:12.408Z,8.47
2019-04-01T12:02:38.955Z,8.00
2019-04-01T12:05:08.007Z,8.90
2019-04-01T12:07:36.702Z,13.27
2019-04-01T12:10:07.447Z,7.67
2019-04-01T12:12:35.538Z,6.70
2019-04-01T12:15:05.486Z,13.20
2019-04-01T12:17:33.908Z,6.40
2019-04-01T12:20:02.420Z,7.87
2019-04-01T12:22:30.862Z,6.93
2019-04-01T12:24:59.491Z,8.90
2019-04-01T12:27:28.547Z,9.03
2019-04-01T12:29:56.993Z,7.87
2019-04-01T12:32:25.427Z,8.83
2019-04-01T12:34:53.878Z,8.07
2019-04-01T12:37:22.307Z,7.93
2019-04-01T12:39:51.024Z,8.50
2019-04-01T12:42:19.774Z,8.70
2019-04-01T12:44:48.514Z,11.37
2019-04-01T12:47:17.196Z,10.70
2019-04-01T12:49:45.631Z,7.83
2019-04-01T12:52:14.136Z,6.77
2019-04-01T12:54:42.594Z,8.60
2019-04-01T12:57:11.176Z,10.03
2019-04-01T12:59:39.882Z,7.60
2019-04-01T13:02:08.572Z,9.77
2019-04-01T13:04:37.282Z,6.87
2019-04-01T13:07:05.852Z,8.70
2019-04-01T13:09:34.348Z,10.40
2019-04-01T13:12:03.412Z,10.00
2019-04-01T13:14:32.122Z,8.60
2019-04-01T13:17:00.940Z,10.37
2019-04-01T13:19:29.387Z,10.50
2019-04-01T13:21:57.826Z,7.73
2019-04-01T13:24:27.863Z,7.60
2019-04-01T13:26:56.291Z,7.13
2019-04-01T13:29:24.796Z,13.00
2019-04-01T13:31:53.686Z,8.03
2019-04-01T13:34:24.584Z,10.77
2019-04-01T13:36:53.351Z,8.80
2019-04-01T13:39:21.907Z,6.93
2019-04-01T13:41:50.349Z,6.77
2019-04-01T13:44:19.103Z,15.40
2019-04-01T13:46:48.651Z,8.43
2019-04-01T13:49:17.445Z,7.80
2019-04-01T13:51:46.744Z,6.47
2019-04-01T13:54:15.231Z,8.27
2019-04-01T13:56:44.119Z,11.33
2019-04-01T13:59:12.849Z,10.47
2019-04-01T14:01:41.599Z,9.90
2019-04-01T14:04:10.156Z,11.20
2019-04-01T14:06:39.035Z,8.53
2019-04-01T14:09:07.869Z,8.97
2019-04-01T14:11:36.371Z,6.73
2019-04-01T14:14:05.164Z,8.60
2019-04-01T14:16:33.605Z,7.50
2019-04-01T14:19:02.256Z,9.77
2019-04-01T16:48:47.164Z,9.20
2019-04-01T16:51:15.951Z,10.77
2019-04-01T16:53:44.610Z,11.80
2019-04-01T16:56:13.070Z,7.43
2019-04-01T16:58:41.510Z,7.20
2019-04-01T17:01:11.275Z,11.33
2019-04-01T17:03:40.045Z,12.00
2019-04-01T17:06:08.907Z,8.53
2019-04-01T17:08:38.313Z,8.80
2019-04-01T17:11:07.686Z,9.43
2019-04-01T17:13:36.131Z,9.10
2019-04-01T17:16:04.827Z,7.63
2019-04-01T17:18:33.323Z,10.23
2019-04-01T17:21:01.790Z,10.65
2019-04-01T17:23:30.735Z,9.00
2019-04-01T17:25:59.756Z,14.47
2019-04-01T17:28:28.471Z,12.53
2019-04-01T17:30:56.936Z,11.40
2019-04-01T17:33:25.385Z,8.27
2019-04-01T17:35:54.227Z,15.10
2019-04-01T17:38:22.922Z,10.43
2019-04-01T17:40:51.778Z,11.00
2019-04-01T17:43:22.992Z,6.77
2019-04-01T17:45:50.666Z,10.27
2019-04-01T17:48:19.380Z,6.77
2019-04-01T17:50:47.831Z,12.07
2019-04-01T17:53:16.283Z,7.73
2019-04-01T17:55:45.719Z,8.60
2019-04-01T17:58:15.507Z,11.40
2019-04-01T18:00:46.392Z,9.77
2019-04-01T18:03:15.110Z,5.80
2019-04-01T18:05:43.702Z,10.53
2019-04-01T18:08:12.146Z,10.27
2019-04-01T18:10:40.582Z,8.20
2019-04-01T18:13:09.298Z,11.27
2019-04-01T18:15:37.827Z,12.43
2019-04-01T18:18:06.543Z,9.00
2019-04-01T18:20:35.260Z,10.40
2019-04-01T18:23:03.769Z,8.20
2019-04-01T18:25:32.588Z,10.77
2019-04-01T18:28:01.051Z,14.27
2019-04-01T18:30:29.863Z,11.43
2019-04-01T18:32:59.827Z,9.00
2019-04-01T18:35:28.455Z,11.80
2019-04-01T18:37:57.165Z,10.73
2019-04-01T18:40:32.671Z,10.20
2019-04-01T18:42:56.215Z,9.30
2019-04-01T18:45:24.735Z,10.23
2019-04-01T18:47:53.172Z,8.60
2019-04-01T18:50:21.967Z,9.57
2019-04-01T18:52:50.398Z,8.60
2019-04-01T18:55:19.088Z,13.40
2019-04-01T18:57:47.844Z,12.53
2019-04-01T19:00:18.298Z,10.97
2019-04-01T19:02:47.032Z,18.10
2019-04-01T19:05:15.647Z,13.60
2019-04-01T19:07:44.129Z,8.27
2019-04-01T19:10:12.914Z,10.40
2019-04-01T19:12:41.393Z,8.90
2019-04-01T19:15:10.597Z,8.93
2019-04-01T19:17:39.079Z,7.80
2019-04-01T19:20:08.566Z,11.97
2019-04-01T19:22:37.083Z,11.90
2019-04-01T19:25:07.270Z,11.33
2019-04-01T19:27:35.755Z,10.57
2019-04-01T19:30:06.053Z,8.40
2019-04-01T19:32:34.916Z,11.33
2019-04-01T19:35:05.063Z,14.30
2019-04-01T19:37:34.013Z,11.27
2019-04-01T19:40:02.832Z,16.33
2019-04-01T19:42:31.415Z,9.60
2019-04-01T19:44:59.907Z,8.87
2019-04-01T19:47:28.385Z,13.20
2019-04-01T19:49:56.826Z,10.67
2019-04-01T19:52:26.301Z,9.53
2019-04-01T19:54:55.063Z,11.50
2019-04-01T19:57:23.507Z,12.37
2019-04-01T19:59:51.996Z,8.40
2019-04-01T20:02:20.520Z,13.47
2019-04-01T20:04:49.263Z,9.60
2019-04-01T20:07:17.784Z,13.40
2019-04-01T20:09:46.380Z,12.97
2019-04-01T20:12:14.971Z,10.77
2019-04-01T20:14:43.430Z,12.73
2019-04-01T20:17:12.177Z,9.43
2019-04-01T20:19:40.630Z,16.90
2019-04-01T20:22:09.437Z,8.50
2019-04-01T20:24:37.886Z,13.23
2019-04-01T20:27:06.528Z,12.73
2019-04-01T20:29:35.020Z,11.30
2019-04-01T20:32:16.222Z,14.50
2019-04-01T20:34:33.732Z,14.03
2019-04-01T20:37:02.196Z,14.20
2019-04-01T20:39:30.636Z,12.33
2019-04-01T20:41:59.086Z,10.87
2019-04-01T20:44:27.563Z,11.20
2019-04-01T20:46:56.286Z,11.27
2019-04-01T20:49:25.586Z,14.73
2019-04-01T20:51:54.189Z,16.27
2019-04-01T20:54:22.859Z,13.20
2019-04-01T20:56:51.587Z,12.53
2019-04-01T20:59:20.064Z,13.83
2019-04-01T21:01:48.591Z,14.50
2019-04-01T21:04:17.030Z,21.83
2019-04-01T21:06:45.795Z,13.73
2019-04-01T21:09:16.068Z,11.20
2019-04-01T21:11:44.771Z,14.57
2019-04-01T21:14:13.224Z,14.83
2019-04-01T21:16:41.947Z,13.27
2019-04-01T21:19:10.410Z,13.43
2019-04-01T21:21:39.454Z,14.23
2019-04-01T21:24:08.502Z,19.47
2019-04-01T21:26:37.227Z,13.67
2019-04-01T21:29:05.956Z,16.60
2019-04-01T21:31:34.683Z,11.27
2019-04-01T21:34:03.407Z,16.37
2019-04-01T21:36:31.847Z,20.10
2019-04-01T21:39:01.241Z,20.20
2019-04-01T21:41:30.114Z,13.60
2019-04-01T21:43:58.633Z,16.80
2019-04-01T21:46:27.087Z,15.07
2019-04-01T21:48:55.797Z,16.53
2019-04-01T21:51:24.517Z,15.70
2019-04-01T21:53:52.967Z,18.27
2019-04-01T21:56:22.177Z,15.73
2019-04-01T21:58:51.843Z,17.30
2019-04-01T22:01:20.558Z,20.63
2019-04-01T22:03:49.286Z,16.80
2019-04-01T22:06:18.066Z,17.03
2019-04-01T22:08:46.579Z,22.70
2019-04-01T22:11:15.031Z,22.47
2019-04-01T22:13:43.756Z,16.77
2019-04-01T22:16:12.671Z,17.67
2019-04-01T22:18:41.125Z,16.70
2019-04-01T22:21:11.607Z,16.17
2019-04-01T22:23:40.136Z,17.20
2019-04-01T22:26:08.857Z,14.90
2019-04-01T22:28:37.617Z,15.83
2019-04-01T22:31:06.058Z,16.87
2019-04-01T22:33:34.522Z,17.77
2019-04-01T22:36:02.967Z,19.40
2019-04-01T22:38:31.422Z,17.07
2019-04-01T22:41:00.272Z,19.23
2019-04-01T22:43:28.806Z,14.33
2019-04-01T22:45:57.257Z,18.67
2019-04-01T22:48:25.762Z,19.13
2019-04-01T22:50:54.210Z,18.37
2019-04-01T22:53:22.987Z,18.50
2019-04-01T22:55:51.746Z,17.50
2019-04-01T22:58:21.968Z,20.20
2019-04-01T23:00:50.629Z,22.70
2019-04-01T23:03:19.075Z,18.87
2019-04-01T23:05:47.528Z,15.83
2019-04-01T23:08:16.296Z,18.97
2019-04-01T23:10:45.010Z,19.23
2019-04-01T23:13:13.723Z,15.70
2019-04-01T23:15:43.174Z,20.73
2019-04-01T23:18:12.542Z,24.10
2019-04-01T23:20:40.984Z,20.17
2019-04-01T23:23:09.700Z,18.97
2019-04-01T23:25:38.171Z,22.43
2019-04-01T23:28:06.595Z,18.00
2019-04-01T23:30:35.340Z,19.10
2019-04-01T23:33:03.910Z,17.97
2019-04-01T23:35:32.536Z,16.40
2019-04-01T23:38:00.984Z,23.33
2019-04-01T23:40:29.423Z,20.10
2019-04-01T23:42:57.965Z,23.53
2019-04-01T23:45:26.486Z,18.77
2019-04-01T23:47:54.923Z,20.97
2019-04-01T23:50:23.637Z,19.17
2019-04-01T23:52:52.070Z,17.50
2019-04-01T23:55:20.519Z,16.43
2019-04-01T23:57:49.231Z,18.23
